Main page
METAR-TAF:

METAR-TAF

Airports :

Taylorville Municipal Airport

Taylorville, Illinois, United States

latitude: 39-32-03N, longitude: 089-19-40W, elevation: 623 ft

Current weather observation

The report was made 12 minutes ago, at 22:15 UTC
Wind 12 mph from the North
Temperature 27°F
Humidity 54%
Pressure 30.68 in. Hg
Visibility: 10 miles
Clear sky

METAR: KTAZ 202215Z AUTO 35010KT 10SM CLR M03/M11 A3068 RMK AO2 T10331115

Time: 16:27 (22:27 UTC)


TAF: missing

Weather observations and forecasts of more than 4000 airports (METAR and TAF reports).

The available stations are represented by yellow and red dots on the map.

Hover mouse over dot to see the name of the station.

Then click to see weather observations and forecasts.

To change the map : click on the green buttons with a black cross to zoom in, on the green button with a dash to zoom out, or on the green arrows for adjacent maps.


METAR-TAF: